Broseley, United Kingdom
Current Conditions -  °F | °C
As of 9:50 PM on Thursday 20 Nov 2014 (Local Time) from EGOS Reporting Station
Drizzle Drizzle  
Wind Chill:   Ceiling: Unl
Heat Index:   Visibility: 0.03mi
Dew Point:   Wind: 5mph
Humidity: 100%   Direction: 80°E
Pressure: 30.24"   Gusts: NA
Location:  52.61°N, 2.48°W
Report Text: EGOS 202150Z AUTO 08004KT 0050 -DZ VV/// 05/05 Q1024
Loading
Personal Weather Stations






























Interactive Weather Map New forecast layout! Learn more

10-Day Weather Forecast

Advertisements
Track Severe Weather on mobile